Holy Cross Airport
PAHC : rendu visible

Aérodrome :











RETROUVEZ-NOUS SUR...

 
LOGIN :

S'inscrire | Disclaimer

   EN    FR    IT 

 









Légende :    VFR   VFR Marginal   IFR   IFR Intensif   IFR Très Intensif
Visi : 
Plafond : 
>= 8 km
>= 3000ft
5 à 8 km
1000 à 3000 ft
1500m à 5 km
500 à 1000 ft
800 à 1500m
200 à 500 ft
< 800m
< 200 ft
Symboles :   Orages  Brouillard  Fortes neiges  Fortes précipitations  Vent > 20 kt






- Altitude de l'aérodrome : 70 ft
- Code IATA : HCR


PAHC - Holy Cross

DERNIER METAR :
  • 271156Z AUTO VRB05KT 10SM CLR M20/M24 A2985 RMK AO2 SLP111 T12001239 11167 21200 52005 FZRANO

METARs EXPIRÉS :
  • 271056Z AUTO 01006KT 10SM CLR M19/M24 A2984 RMK AO2 SLP109 T11941239 FZRANO
  • 270956Z AUTO 36007G14KT 10SM CLR M19/M23 A2984 RMK AO2 SLP108 T11891233 FZRANO

TAF N/A



MET'MAP, la Météo Aéronautique d'un coup d'oeil ! - Copyright ORBIFLY Décembre 2007 - Disclaimer

ORBIFLY MET'MAP TEAM :

Programmation & Développement : Alexandra Zaïnal
Sur une idée originale de : Baudouin d'Aumeries
Assistance à la programmation : Marc-Olivier Méhu
Soutien technique & logistique : Manuel Goepfert

Contact : metmap@orbifly.com




SOURCES & CREDITS :

   NOAA       Earth
Advisory